Yellowstone Regional Airport
KCOD : now visible

Airfield :











YOU CAN JOIN US ON...

 
LOGIN :

Register | Disclaimer

   EN    FR    IT 

 









Legend :    VFR   Marginal VFR   IFR   Intensive IFR   Very Intensive IFR
Visi :
Ceiling :
>= 8 km
>= 3000ft
5 to 8 km
1000 to 3000 ft
1500m to 5 km
500 to 1000 ft
800 to 1500m
200 to 500 ft
< 800m
< 200 ft
Symbols :   Thunderstorms  Fog  Heavy snow  Heavy precipitations  Wind > 20 kt






- Airport Elevation : 5102 ft


KCOD - Yellowstone Regional

CURRENT METAR :
  • 281556Z AUTO 03007KT 10SM CLR 14/04 A3033 RMK AO2 SLP247 T01390044

EXPIRED METARs :
  • 281456Z AUTO VRB05KT 10SM CLR 14/05 A3034 RMK AO2 SLP249 T01390050 50000
  • 281356Z AUTO 31006KT 10SM CLR 12/04 A3035 RMK AO2 SLP255 T01170044

TAF KCOD
Valid from the 28 at 12:00 until the 29 at 12:00 UTC


281129Z 2812/2912 34008KT P6SM SKC
FM281800 03008KT P6SM SCT090
FM282300 03008KT P6SM BKN090
FM290400 35006KT P6SM SCT120
KZLC FIR / North America



MET'MAP, your aeronautical weather chart ! - Copyright ORBIFLY December 2007 - Disclaimer

ORBIFLY MET'MAP TEAM :

Programming & Development : Alexandra Zaïnal
Concept & original design : Baudouin d'Aumeries
Assistance for programming : Marc-Olivier Méhu
Technical & hardware support : Manuel Goepfert

Contact : metmap@orbifly.com




SOURCES & CREDITS :

   NOAA       Earth
Advisory